sensor_id;sensor_type;location;lat;lon;timestamp;P1;durP1;ratioP1;P2;durP2;ratioP2
4903;SDS011;2467;48.142;11.616;2023-02-11T00:00:28;23.25;;;16.38;;
4903;SDS011;2467;48.142;11.616;2023-02-11T00:01:04;21.98;;;15.45;;
4903;SDS011;2467;48.142;11.616;2023-02-11T00:01:37;19.90;;;17.35;;
4903;SDS011;2467;48.142;11.616;2023-02-11T00:02:09;20.65;;;15.80;;
4903;SDS011;2467;48.142;11.616;2023-02-11T00:02:42;18.05;;;14.48;;
4903;SDS011;2467;48.142;11.616;2023-02-11T00:03:18;25.63;;;16.08;;
4903;SDS011;2467;48.142;11.616;2023-02-11T00:03:50;20.02;;;15.70;;
4903;SDS011;2467;48.142;11.616;2023-02-11T00:04:22;20.40;;;16.33;;
4903;SDS011;2467;48.142;11.616;2023-02-11T00:04:55;21.98;;;15.52;;
4903;SDS011;2467;48.142;11.616;2023-02-11T00:05:27;23.10;;;17.10;;
4903;SDS011;2467;48.142;11.616;2023-02-11T00:05:59;18.48;;;15.13;;
4903;SDS011;2467;48.142;11.616;2023-02-11T00:06:33;21.08;;;17.27;;
4903;SDS011;2467;48.142;11.616;2023-02-11T00:07:07;18.00;;;15.93;;
4903;SDS011;2467;48.142;11.616;2023-02-11T00:07:40;22.13;;;16.17;;
4903;SDS011;2467;48.142;11.616;2023-02-11T00:08:11;18.48;;;15.07;;
4903;SDS011;2467;48.142;11.616;2023-02-11T00:08:47;21.08;;;16.85;;
4903;SDS011;2467;48.142;11.616;2023-02-11T00:09:19;20.65;;;16.27;;
4903;SDS011;2467;48.142;11.616;2023-02-11T00:09:51;19.77;;;14.95;;
4903;SDS011;2467;48.142;11.616;2023-02-11T00:10:23;18.85;;;15.20;;
4903;SDS011;2467;48.142;11.616;2023-02-11T00:10:55;21.35;;;15.80;;
4903;SDS011;2467;48.142;11.616;2023-02-11T00:11:28;21.48;;;16.13;;
4903;SDS011;2467;48.142;11.616;2023-02-11T00:12:01;20.20;;;14.98;;
4903;SDS011;2467;48.142;11.616;2023-02-11T00:12:33;19.45;;;17.23;;
4903;SDS011;2467;48.142;11.616;2023-02-11T00:13:05;23.13;;;16.52;;
4903;SDS011;2467;48.142;11.616;2023-02-11T00:13:37;19.42;;;17.33;;
4903;SDS011;2467;48.142;11.616;2023-02-11T00:14:10;23.13;;;15.18;;
4903;SDS011;2467;48.142;11.616;2023-02-11T00:14:42;18.83;;;16.00;;
4903;SDS011;2467;48.142;11.616;2023-02-11T00:15:15;17.58;;;15.52;;
4903;SDS011;2467;48.142;11.616;2023-02-11T00:15:46;19.30;;;14.52;;
4903;SDS011;2467;48.142;11.616;2023-02-11T00:16:19;24.83;;;17.67;;
4903;SDS011;2467;48.142;11.616;2023-02-11T00:16:52;18.25;;;16.35;;
4903;SDS011;2467;48.142;11.616;2023-02-11T00:17:24;19.52;;;16.33;;
4903;SDS011;2467;48.142;11.616;2023-02-11T00:17:56;19.52;;;16.50;;
4903;SDS011;2467;48.142;11.616;2023-02-11T00:18:29;18.13;;;16.15;;
4903;SDS011;2467;48.142;11.616;2023-02-11T00:19:01;22.42;;;16.83;;
4903;SDS011;2467;48.142;11.616;2023-02-11T00:19:33;18.38;;;15.55;;
4903;SDS011;2467;48.142;11.616;2023-02-11T00:20:06;17.92;;;15.63;;
4903;SDS011;2467;48.142;11.616;2023-02-11T00:20:39;17.85;;;15.07;;
4903;SDS011;2467;48.142;11.616;2023-02-11T00:21:12;20.05;;;16.13;;
4903;SDS011;2467;48.142;11.616;2023-02-11T00:21:46;24.40;;;17.23;;
4903;SDS011;2467;48.142;11.616;2023-02-11T00:22:19;20.98;;;17.05;;
4903;SDS011;2467;48.142;11.616;2023-02-11T00:22:51;18.20;;;16.30;;
4903;SDS011;2467;48.142;11.616;2023-02-11T00:23:24;22.52;;;16.50;;
4903;SDS011;2467;48.142;11.616;2023-02-11T00:23:55;22.73;;;16.92;;
4903;SDS011;2467;48.142;11.616;2023-02-11T00:24:29;20.45;;;16.27;;
4903;SDS011;2467;48.142;11.616;2023-02-11T00:25:02;20.17;;;16.15;;
4903;SDS011;2467;48.142;11.616;2023-02-11T00:25:37;22.45;;;18.50;;
4903;SDS011;2467;48.142;11.616;2023-02-11T00:26:10;21.23;;;16.17;;
4903;SDS011;2467;48.142;11.616;2023-02-11T00:26:43;19.42;;;16.48;;
4903;SDS011;2467;48.142;11.616;2023-02-11T00:27:16;18.85;;;16.63;;
4903;SDS011;2467;48.142;11.616;2023-02-11T00:27:48;20.17;;;15.73;;
4903;SDS011;2467;48.142;11.616;2023-02-11T00:28:19;20.25;;;15.38;;
4903;SDS011;2467;48.142;11.616;2023-02-11T00:28:52;19.45;;;15.63;;
4903;SDS011;2467;48.142;11.616;2023-02-11T00:29:24;19.15;;;16.52;;
4903;SDS011;2467;48.142;11.616;2023-02-11T00:29:56;18.38;;;14.77;;
4903;SDS011;2467;48.142;11.616;2023-02-11T00:30:30;20.02;;;16.52;;
4903;SDS011;2467;48.142;11.616;2023-02-11T00:31:02;20.60;;;16.42;;
4903;SDS011;2467;48.142;11.616;2023-02-11T00:31:34;17.77;;;15.85;;
4903;SDS011;2467;48.142;11.616;2023-02-11T00:32:08;25.85;;;17.50;;
4903;SDS011;2467;48.142;11.616;2023-02-11T00:32:40;19.70;;;16.30;;
4903;SDS011;2467;48.142;11.616;2023-02-11T00:33:12;20.65;;;15.55;;
4903;SDS011;2467;48.142;11.616;2023-02-11T00:33:44;18.02;;;15.30;;
4903;SDS011;2467;48.142;11.616;2023-02-11T00:34:17;24.77;;;16.67;;
4903;SDS011;2467;48.142;11.616;2023-02-11T00:34:50;20.08;;;16.48;;
4903;SDS011;2467;48.142;11.616;2023-02-11T00:35:22;16.15;;;14.05;;
4903;SDS011;2467;48.142;11.616;2023-02-11T00:35:56;23.33;;;17.40;;
4903;SDS011;2467;48.142;11.616;2023-02-11T00:36:28;22.77;;;17.33;;
4903;SDS011;2467;48.142;11.616;2023-02-11T00:37:00;29.80;;;18.52;;
4903;SDS011;2467;48.142;11.616;2023-02-11T00:37:35;19.00;;;16.02;;
4903;SDS011;2467;48.142;11.616;2023-02-11T00:38:06;26.33;;;17.25;;
4903;SDS011;2467;48.142;11.616;2023-02-11T00:38:38;20.70;;;16.23;;
4903;SDS011;2467;48.142;11.616;2023-02-11T00:39:11;19.00;;;15.43;;
4903;SDS011;2467;48.142;11.616;2023-02-11T00:39:43;21.70;;;17.70;;
4903;SDS011;2467;48.142;11.616;2023-02-11T00:40:15;21.33;;;17.05;;
4903;SDS011;2467;48.142;11.616;2023-02-11T00:40:48;20.63;;;15.98;;
4903;SDS011;2467;48.142;11.616;2023-02-11T00:41:20;22.27;;;16.25;;
4903;SDS011;2467;48.142;11.616;2023-02-11T00:41:53;21.65;;;17.38;;
4903;SDS011;2467;48.142;11.616;2023-02-11T00:42:25;21.70;;;16.58;;
4903;SDS011;2467;48.142;11.616;2023-02-11T00:42:57;20.35;;;16.30;;
4903;SDS011;2467;48.142;11.616;2023-02-11T00:43:29;21.05;;;17.48;;
4903;SDS011;2467;48.142;11.616;2023-02-11T00:44:01;19.40;;;17.00;;
4903;SDS011;2467;48.142;11.616;2023-02-11T00:44:34;22.42;;;15.35;;
4903;SDS011;2467;48.142;11.616;2023-02-11T00:45:06;22.23;;;16.35;;
4903;SDS011;2467;48.142;11.616;2023-02-11T00:45:39;23.15;;;18.10;;
4903;SDS011;2467;48.142;11.616;2023-02-11T00:46:12;21.83;;;16.23;;
4903;SDS011;2467;48.142;11.616;2023-02-11T00:46:45;20.58;;;16.80;;
4903;SDS011;2467;48.142;11.616;2023-02-11T00:47:17;21.10;;;15.48;;
4903;SDS011;2467;48.142;11.616;2023-02-11T00:47:50;21.13;;;16.15;;
4903;SDS011;2467;48.142;11.616;2023-02-11T00:48:22;22.00;;;16.52;;
4903;SDS011;2467;48.142;11.616;2023-02-11T00:48:54;19.38;;;15.75;;
4903;SDS011;2467;48.142;11.616;2023-02-11T00:49:27;21.23;;;17.52;;
4903;SDS011;2467;48.142;11.616;2023-02-11T00:49:59;21.17;;;17.50;;
4903;SDS011;2467;48.142;11.616;2023-02-11T00:50:31;20.80;;;16.83;;
4903;SDS011;2467;48.142;11.616;2023-02-11T00:51:04;23.85;;;16.83;;
4903;SDS011;2467;48.142;11.616;2023-02-11T00:51:36;22.98;;;16.25;;
4903;SDS011;2467;48.142;11.616;2023-02-11T00:52:08;17.65;;;15.52;;
4903;SDS011;2467;48.142;11.616;2023-02-11T00:52:43;20.38;;;15.85;;
4903;SDS011;2467;48.142;11.616;2023-02-11T00:53:14;21.75;;;18.98;;
4903;SDS011;2467;48.142;11.616;2023-02-11T00:53:46;20.40;;;15.90;;
4903;SDS011;2467;48.142;11.616;2023-02-11T00:54:19;21.67;;;17.35;;
4903;SDS011;2467;48.142;11.616;2023-02-11T00:54:51;19.10;;;16.83;;
4903;SDS011;2467;48.142;11.616;2023-02-11T00:55:23;25.30;;;16.75;;
4903;SDS011;2467;48.142;11.616;2023-02-11T00:55:55;23.92;;;17.00;;
4903;SDS011;2467;48.142;11.616;2023-02-11T00:56:28;24.70;;;16.95;;
4903;SDS011;2467;48.142;11.616;2023-02-11T00:56:59;20.25;;;16.60;;
4903;SDS011;2467;48.142;11.616;2023-02-11T00:57:31;22.10;;;16.30;;
4903;SDS011;2467;48.142;11.616;2023-02-11T00:58:04;21.52;;;19.15;;
4903;SDS011;2467;48.142;11.616;2023-02-11T00:58:36;21.13;;;17.13;;
4903;SDS011;2467;48.142;11.616;2023-02-11T00:59:08;23.70;;;17.30;;
4903;SDS011;2467;48.142;11.616;2023-02-11T00:59:40;23.63;;;17.83;;
4903;SDS011;2467;48.142;11.616;2023-02-11T01:00:13;22.35;;;16.33;;
4903;SDS011;2467;48.142;11.616;2023-02-11T01:00:46;16.98;;;15.18;;
4903;SDS011;2467;48.142;11.616;2023-02-11T01:01:18;18.50;;;15.93;;
4903;SDS011;2467;48.142;11.616;2023-02-11T01:01:50;23.52;;;17.73;;
4903;SDS011;2467;48.142;11.616;2023-02-11T01:02:23;22.17;;;16.40;;
4903;SDS011;2467;48.142;11.616;2023-02-11T01:02:55;18.52;;;16.55;;
4903;SDS011;2467;48.142;11.616;2023-02-11T01:03:27;20.55;;;16.60;;
4903;SDS011;2467;48.142;11.616;2023-02-11T01:03:59;22.77;;;17.40;;
4903;SDS011;2467;48.142;11.616;2023-02-11T01:04:32;19.15;;;16.13;;
4903;SDS011;2467;48.142;11.616;2023-02-11T01:05:04;17.45;;;15.45;;
4903;SDS011;2467;48.142;11.616;2023-02-11T01:05:36;20.40;;;16.20;;
4903;SDS011;2467;48.142;11.616;2023-02-11T01:06:09;23.05;;;17.05;;
4903;SDS011;2467;48.142;11.616;2023-02-11T01:06:42;18.48;;;16.27;;
4903;SDS011;2467;48.142;11.616;2023-02-11T01:07:13;17.98;;;15.63;;
4903;SDS011;2467;48.142;11.616;2023-02-11T01:07:47;21.15;;;15.93;;
4903;SDS011;2467;48.142;11.616;2023-02-11T01:08:19;17.80;;;15.95;;
4903;SDS011;2467;48.142;11.616;2023-02-11T01:08:51;20.77;;;15.95;;
4903;SDS011;2467;48.142;11.616;2023-02-11T01:09:24;21.90;;;16.98;;
4903;SDS011;2467;48.142;11.616;2023-02-11T01:09:56;24.38;;;15.18;;
4903;SDS011;2467;48.142;11.616;2023-02-11T01:10:28;23.27;;;17.42;;
4903;SDS011;2467;48.142;11.616;2023-02-11T01:11:02;21.45;;;17.15;;
4903;SDS011;2467;48.142;11.616;2023-02-11T01:11:35;17.88;;;15.98;;
4903;SDS011;2467;48.142;11.616;2023-02-11T01:12:08;19.85;;;16.98;;
4903;SDS011;2467;48.142;11.616;2023-02-11T01:12:40;20.45;;;17.58;;
4903;SDS011;2467;48.142;11.616;2023-02-11T01:13:12;18.58;;;16.50;;
4903;SDS011;2467;48.142;11.616;2023-02-11T01:13:45;19.92;;;17.50;;
4903;SDS011;2467;48.142;11.616;2023-02-11T01:14:18;18.30;;;14.77;;
4903;SDS011;2467;48.142;11.616;2023-02-11T01:14:50;17.25;;;15.45;;
4903;SDS011;2467;48.142;11.616;2023-02-11T01:15:22;27.60;;;17.60;;
4903;SDS011;2467;48.142;11.616;2023-02-11T01:15:55;22.23;;;17.38;;
4903;SDS011;2467;48.142;11.616;2023-02-11T01:16:28;22.55;;;16.88;;
4903;SDS011;2467;48.142;11.616;2023-02-11T01:17:00;22.67;;;16.50;;
4903;SDS011;2467;48.142;11.616;2023-02-11T01:17:32;23.02;;;17.77;;
4903;SDS011;2467;48.142;11.616;2023-02-11T01:18:04;19.50;;;16.30;;
4903;SDS011;2467;48.142;11.616;2023-02-11T01:18:37;18.58;;;16.42;;
4903;SDS011;2467;48.142;11.616;2023-02-11T01:19:09;21.05;;;16.10;;
4903;SDS011;2467;48.142;11.616;2023-02-11T01:19:42;21.20;;;17.40;;
4903;SDS011;2467;48.142;11.616;2023-02-11T01:20:15;21.52;;;16.65;;
4903;SDS011;2467;48.142;11.616;2023-02-11T01:20:49;19.83;;;16.27;;
4903;SDS011;2467;48.142;11.616;2023-02-11T01:21:22;21.90;;;15.75;;
4903;SDS011;2467;48.142;11.616;2023-02-11T01:21:55;21.83;;;16.58;;
4903;SDS011;2467;48.142;11.616;2023-02-11T01:22:27;20.08;;;15.63;;
4903;SDS011;2467;48.142;11.616;2023-02-11T01:23:01;19.30;;;15.55;;
4903;SDS011;2467;48.142;11.616;2023-02-11T01:23:33;22.02;;;16.90;;
4903;SDS011;2467;48.142;11.616;2023-02-11T01:24:05;19.88;;;16.08;;
4903;SDS011;2467;48.142;11.616;2023-02-11T01:24:38;19.25;;;15.05;;
4903;SDS011;2467;48.142;11.616;2023-02-11T01:25:10;19.30;;;16.83;;
4903;SDS011;2467;48.142;11.616;2023-02-11T01:25:41;26.42;;;15.07;;
4903;SDS011;2467;48.142;11.616;2023-02-11T01:26:13;18.02;;;14.98;;
4903;SDS011;2467;48.142;11.616;2023-02-11T01:26:46;20.38;;;15.82;;
4903;SDS011;2467;48.142;11.616;2023-02-11T01:27:18;22.23;;;17.17;;
4903;SDS011;2467;48.142;11.616;2023-02-11T01:27:50;18.83;;;16.05;;
4903;SDS011;2467;48.142;11.616;2023-02-11T01:28:23;16.80;;;14.75;;
4903;SDS011;2467;48.142;11.616;2023-02-11T01:28:57;22.10;;;16.58;;
4903;SDS011;2467;48.142;11.616;2023-02-11T01:29:30;18.30;;;15.85;;
4903;SDS011;2467;48.142;11.616;2023-02-11T01:30:04;20.65;;;16.75;;
4903;SDS011;2467;48.142;11.616;2023-02-11T01:30:38;16.95;;;14.55;;
4903;SDS011;2467;48.142;11.616;2023-02-11T01:31:10;19.75;;;15.52;;
4903;SDS011;2467;48.142;11.616;2023-02-11T01:31:42;16.63;;;14.82;;
4903;SDS011;2467;48.142;11.616;2023-02-11T01:32:14;20.65;;;15.98;;
4903;SDS011;2467;48.142;11.616;2023-02-11T01:32:46;20.10;;;14.73;;
4903;SDS011;2467;48.142;11.616;2023-02-11T01:33:20;22.05;;;16.00;;
4903;SDS011;2467;48.142;11.616;2023-02-11T01:33:52;17.15;;;15.35;;
4903;SDS011;2467;48.142;11.616;2023-02-11T01:34:25;17.40;;;14.85;;
4903;SDS011;2467;48.142;11.616;2023-02-11T01:34:57;19.83;;;15.10;;
4903;SDS011;2467;48.142;11.616;2023-02-11T01:35:29;19.08;;;14.63;;
4903;SDS011;2467;48.142;11.616;2023-02-11T01:36:02;17.95;;;14.38;;
4903;SDS011;2467;48.142;11.616;2023-02-11T01:36:35;17.90;;;14.98;;
4903;SDS011;2467;48.142;11.616;2023-02-11T01:37:07;22.88;;;15.68;;
4903;SDS011;2467;48.142;11.616;2023-02-11T01:37:40;18.63;;;14.85;;
4903;SDS011;2467;48.142;11.616;2023-02-11T01:38:14;19.05;;;14.65;;
4903;SDS011;2467;48.142;11.616;2023-02-11T01:38:47;21.33;;;15.48;;
4903;SDS011;2467;48.142;11.616;2023-02-11T01:39:21;22.98;;;15.10;;
4903;SDS011;2467;48.142;11.616;2023-02-11T01:39:53;18.60;;;15.38;;
4903;SDS011;2467;48.142;11.616;2023-02-11T01:40:25;17.10;;;15.18;;
4903;SDS011;2467;48.142;11.616;2023-02-11T01:40:58;21.10;;;16.48;;
4903;SDS011;2467;48.142;11.616;2023-02-11T01:41:31;20.23;;;15.18;;
4903;SDS011;2467;48.142;11.616;2023-02-11T01:42:03;19.38;;;14.38;;
4903;SDS011;2467;48.142;11.616;2023-02-11T01:42:36;17.23;;;13.48;;
4903;SDS011;2467;48.142;11.616;2023-02-11T01:43:08;18.38;;;15.13;;
4903;SDS011;2467;48.142;11.616;2023-02-11T01:43:41;18.63;;;15.45;;
4903;SDS011;2467;48.142;11.616;2023-02-11T01:44:22;19.15;;;15.90;;
4903;SDS011;2467;48.142;11.616;2023-02-11T01:44:56;17.10;;;13.85;;
4903;SDS011;2467;48.142;11.616;2023-02-11T01:46:29;18.52;;;14.43;;
4903;SDS011;2467;48.142;11.616;2023-02-11T01:47:04;19.73;;;14.48;;
4903;SDS011;2467;48.142;11.616;2023-02-11T01:47:36;17.48;;;14.30;;
4903;SDS011;2467;48.142;11.616;2023-02-11T01:48:09;16.83;;;13.93;;
4903;SDS011;2467;48.142;11.616;2023-02-11T01:48:44;16.08;;;14.13;;
4903;SDS011;2467;48.142;11.616;2023-02-11T01:49:20;18.80;;;15.35;;
4903;SDS011;2467;48.142;11.616;2023-02-11T01:49:56;20.15;;;14.85;;
4903;SDS011;2467;48.142;11.616;2023-02-11T01:50:31;15.07;;;13.45;;
4903;SDS011;2467;48.142;11.616;2023-02-11T01:51:04;19.35;;;13.98;;
4903;SDS011;2467;48.142;11.616;2023-02-11T01:51:41;19.20;;;15.30;;
4903;SDS011;2467;48.142;11.616;2023-02-11T01:52:17;19.10;;;14.38;;
4903;SDS011;2467;48.142;11.616;2023-02-11T01:52:52;16.42;;;14.05;;
4903;SDS011;2467;48.142;11.616;2023-02-11T01:53:46;16.10;;;13.77;;
4903;SDS011;2467;48.142;11.616;2023-02-11T01:54:39;15.50;;;13.45;;
4903;SDS011;2467;48.142;11.616;2023-02-11T01:55:32;18.25;;;13.18;;
4903;SDS011;2467;48.142;11.616;2023-02-11T01:56:23;17.95;;;13.57;;
4903;SDS011;2467;48.142;11.616;2023-02-11T01:57:16;21.80;;;13.88;;
4903;SDS011;2467;48.142;11.616;2023-02-11T01:57:52;19.10;;;14.95;;
4903;SDS011;2467;48.142;11.616;2023-02-11T01:58:28;19.65;;;14.35;;
4903;SDS011;2467;48.142;11.616;2023-02-11T01:59:03;17.58;;;14.43;;
4903;SDS011;2467;48.142;11.616;2023-02-11T01:59:42;17.23;;;12.90;;
4903;SDS011;2467;48.142;11.616;2023-02-11T02:00:23;17.65;;;14.60;;
4903;SDS011;2467;48.142;11.616;2023-02-11T02:00:57;18.73;;;14.02;;
4903;SDS011;2467;48.142;11.616;2023-02-11T02:01:31;17.90;;;14.98;;
4903;SDS011;2467;48.142;11.616;2023-02-11T02:02:05;16.85;;;13.88;;
4903;SDS011;2467;48.142;11.616;2023-02-11T02:02:42;18.75;;;15.52;;
4903;SDS011;2467;48.142;11.616;2023-02-11T02:03:20;15.90;;;13.68;;
4903;SDS011;2467;48.142;11.616;2023-02-11T02:03:55;15.88;;;13.02;;
4903;SDS011;2467;48.142;11.616;2023-02-11T02:04:32;17.35;;;14.43;;
4903;SDS011;2467;48.142;11.616;2023-02-11T02:05:14;19.52;;;13.88;;
4903;SDS011;2467;48.142;11.616;2023-02-11T02:05:52;17.95;;;13.93;;
4903;SDS011;2467;48.142;11.616;2023-02-11T02:06:29;22.15;;;13.85;;
4903;SDS011;2467;48.142;11.616;2023-02-11T02:07:05;15.63;;;13.07;;
4903;SDS011;2467;48.142;11.616;2023-02-11T02:07:41;17.45;;;14.13;;
4903;SDS011;2467;48.142;11.616;2023-02-11T02:08:20;15.25;;;12.40;;
4903;SDS011;2467;48.142;11.616;2023-02-11T02:08:58;15.77;;;12.95;;
4903;SDS011;2467;48.142;11.616;2023-02-11T02:09:35;15.30;;;13.07;;
4903;SDS011;2467;48.142;11.616;2023-02-11T02:10:13;17.23;;;13.80;;
4903;SDS011;2467;48.142;11.616;2023-02-11T02:10:49;18.20;;;13.23;;
4903;SDS011;2467;48.142;11.616;2023-02-11T02:11:26;15.00;;;13.38;;
4903;SDS011;2467;48.142;11.616;2023-02-11T02:11:59;16.52;;;13.82;;
4903;SDS011;2467;48.142;11.616;2023-02-11T02:12:31;14.82;;;13.32;;
4903;SDS011;2467;48.142;11.616;2023-02-11T02:13:03;17.55;;;13.45;;
4903;SDS011;2467;48.142;11.616;2023-02-11T02:13:36;18.83;;;15.10;;
4903;SDS011;2467;48.142;11.616;2023-02-11T02:14:08;17.00;;;14.18;;
4903;SDS011;2467;48.142;11.616;2023-02-11T02:14:40;22.15;;;15.77;;
4903;SDS011;2467;48.142;11.616;2023-02-11T02:15:17;18.15;;;14.10;;
4903;SDS011;2467;48.142;11.616;2023-02-11T02:16:00;18.20;;;12.93;;
4903;SDS011;2467;48.142;11.616;2023-02-11T02:16:39;19.77;;;13.80;;
4903;SDS011;2467;48.142;11.616;2023-02-11T02:17:13;17.50;;;13.60;;
4903;SDS011;2467;48.142;11.616;2023-02-11T02:18:16;17.15;;;13.23;;
4903;SDS011;2467;48.142;11.616;2023-02-11T02:19:02;14.63;;;12.32;;
4903;SDS011;2467;48.142;11.616;2023-02-11T02:20:05;16.70;;;13.32;;
4903;SDS011;2467;48.142;11.616;2023-02-11T02:21:03;15.32;;;11.95;;
4903;SDS011;2467;48.142;11.616;2023-02-11T02:21:59;15.00;;;11.25;;
4903;SDS011;2467;48.142;11.616;2023-02-11T02:23:02;16.02;;;12.10;;
4903;SDS011;2467;48.142;11.616;2023-02-11T02:25:14;18.83;;;13.85;;
4903;SDS011;2467;48.142;11.616;2023-02-11T02:27:12;15.38;;;11.65;;
4903;SDS011;2467;48.142;11.616;2023-02-11T02:27:58;17.00;;;12.13;;
4903;SDS011;2467;48.142;11.616;2023-02-11T02:28:48;15.55;;;12.15;;
4903;SDS011;2467;48.142;11.616;2023-02-11T02:30:50;18.27;;;12.73;;
4903;SDS011;2467;48.142;11.616;2023-02-11T02:31:41;18.90;;;11.60;;
4903;SDS011;2467;48.142;11.616;2023-02-11T02:32:30;16.98;;;14.07;;
4903;SDS011;2467;48.142;11.616;2023-02-11T02:33:13;14.88;;;12.02;;
4903;SDS011;2467;48.142;11.616;2023-02-11T02:34:02;17.55;;;12.75;;
4903;SDS011;2467;48.142;11.616;2023-02-11T02:34:40;14.25;;;12.52;;
4903;SDS011;2467;48.142;11.616;2023-02-11T02:35:22;17.92;;;13.50;;
4903;SDS011;2467;48.142;11.616;2023-02-11T02:36:06;16.73;;;13.18;;
4903;SDS011;2467;48.142;11.616;2023-02-11T02:36:45;18.02;;;13.00;;
4903;SDS011;2467;48.142;11.616;2023-02-11T02:37:20;15.50;;;13.02;;
4903;SDS011;2467;48.142;11.616;2023-02-11T02:38:02;16.17;;;13.13;;
4903;SDS011;2467;48.142;11.616;2023-02-11T02:38:42;16.73;;;12.18;;
4903;SDS011;2467;48.142;11.616;2023-02-11T02:39:20;18.08;;;13.70;;
4903;SDS011;2467;48.142;11.616;2023-02-11T02:39:56;16.60;;;13.70;;
4903;SDS011;2467;48.142;11.616;2023-02-11T02:40:33;15.88;;;11.98;;
4903;SDS011;2467;48.142;11.616;2023-02-11T02:41:11;17.58;;;12.63;;
4903;SDS011;2467;48.142;11.616;2023-02-11T02:41:46;17.83;;;12.60;;
4903;SDS011;2467;48.142;11.616;2023-02-11T02:42:19;12.98;;;11.13;;
4903;SDS011;2467;48.142;11.616;2023-02-11T02:42:53;18.02;;;13.02;;
4903;SDS011;2467;48.142;11.616;2023-02-11T02:43:26;17.75;;;12.38;;
4903;SDS011;2467;48.142;11.616;2023-02-11T02:44:00;15.30;;;13.13;;
4903;SDS011;2467;48.142;11.616;2023-02-11T02:44:34;20.23;;;13.38;;
4903;SDS011;2467;48.142;11.616;2023-02-11T02:45:06;17.17;;;12.80;;
4903;SDS011;2467;48.142;11.616;2023-02-11T02:45:39;15.45;;;12.35;;
4903;SDS011;2467;48.142;11.616;2023-02-11T02:46:13;14.48;;;12.43;;
4903;SDS011;2467;48.142;11.616;2023-02-11T02:46:46;16.83;;;12.65;;
4903;SDS011;2467;48.142;11.616;2023-02-11T02:47:18;18.63;;;13.07;;
4903;SDS011;2467;48.142;11.616;2023-02-11T02:47:51;20.17;;;12.85;;
4903;SDS011;2467;48.142;11.616;2023-02-11T02:48:25;14.52;;;12.88;;
4903;SDS011;2467;48.142;11.616;2023-02-11T02:48:57;15.05;;;13.02;;
4903;SDS011;2467;48.142;11.616;2023-02-11T02:49:30;15.02;;;12.60;;
4903;SDS011;2467;48.142;11.616;2023-02-11T02:50:03;14.90;;;11.80;;
4903;SDS011;2467;48.142;11.616;2023-02-11T02:50:37;14.02;;;12.57;;
4903;SDS011;2467;48.142;11.616;2023-02-11T02:51:24;12.88;;;11.30;;
4903;SDS011;2467;48.142;11.616;2023-02-11T02:52:11;13.00;;;11.55;;
4903;SDS011;2467;48.142;11.616;2023-02-11T02:52:50;16.45;;;12.15;;
4903;SDS011;2467;48.142;11.616;2023-02-11T02:53:33;14.93;;;12.32;;
4903;SDS011;2467;48.142;11.616;2023-02-11T02:54:20;12.98;;;11.25;;
4903;SDS011;2467;48.142;11.616;2023-02-11T02:55:21;16.88;;;12.30;;
4903;SDS011;2467;48.142;11.616;2023-02-11T02:56:08;14.85;;;11.60;;
4903;SDS011;2467;48.142;11.616;2023-02-11T02:56:47;15.05;;;12.13;;
4903;SDS011;2467;48.142;11.616;2023-02-11T02:57:28;15.20;;;12.50;;
4903;SDS011;2467;48.142;11.616;2023-02-11T02:58:26;16.23;;;11.48;;
4903;SDS011;2467;48.142;11.616;2023-02-11T02:59:21;13.73;;;10.55;;
4903;SDS011;2467;48.142;11.616;2023-02-11T03:00:04;14.50;;;11.93;;
4903;SDS011;2467;48.142;11.616;2023-02-11T03:00:53;21.77;;;13.27;;
4903;SDS011;2467;48.142;11.616;2023-02-11T03:01:34;18.23;;;11.27;;
4903;SDS011;2467;48.142;11.616;2023-02-11T03:02:14;13.38;;;11.98;;
4903;SDS011;2467;48.142;11.616;2023-02-11T03:03:00;11.57;;;10.02;;
4903;SDS011;2467;48.142;11.616;2023-02-11T03:03:46;16.52;;;11.48;;
4903;SDS011;2467;48.142;11.616;2023-02-11T03:04:23;15.57;;;11.40;;
4903;SDS011;2467;48.142;11.616;2023-02-11T03:05:02;15.27;;;11.82;;
4903;SDS011;2467;48.142;11.616;2023-02-11T03:05:45;14.18;;;10.43;;
4903;SDS011;2467;48.142;11.616;2023-02-11T03:06:24;16.65;;;12.85;;
4903;SDS011;2467;48.142;11.616;2023-02-11T03:07:04;15.40;;;11.38;;
4903;SDS011;2467;48.142;11.616;2023-02-11T03:07:44;14.27;;;10.60;;
4903;SDS011;2467;48.142;11.616;2023-02-11T03:08:24;13.07;;;11.68;;
4903;SDS011;2467;48.142;11.616;2023-02-11T03:09:04;15.40;;;11.70;;
4903;SDS011;2467;48.142;11.616;2023-02-11T03:09:44;13.57;;;10.60;;
4903;SDS011;2467;48.142;11.616;2023-02-11T03:10:19;14.50;;;12.32;;
4903;SDS011;2467;48.142;11.616;2023-02-11T03:10:56;15.45;;;11.85;;
4903;SDS011;2467;48.142;11.616;2023-02-11T03:11:31;13.98;;;12.27;;
4903;SDS011;2467;48.142;11.616;2023-02-11T03:12:04;12.68;;;11.35;;
4903;SDS011;2467;48.142;11.616;2023-02-11T03:12:38;16.73;;;11.90;;
4903;SDS011;2467;48.142;11.616;2023-02-11T03:13:14;13.82;;;11.80;;
4903;SDS011;2467;48.142;11.616;2023-02-11T03:13:49;15.90;;;12.38;;
4903;SDS011;2467;48.142;11.616;2023-02-11T03:14:23;14.07;;;11.40;;
4903;SDS011;2467;48.142;11.616;2023-02-11T03:14:58;13.25;;;11.77;;
4903;SDS011;2467;48.142;11.616;2023-02-11T03:15:34;13.93;;;10.77;;
4903;SDS011;2467;48.142;11.616;2023-02-11T03:16:10;15.50;;;10.75;;
4903;SDS011;2467;48.142;11.616;2023-02-11T03:16:45;16.08;;;11.90;;
4903;SDS011;2467;48.142;11.616;2023-02-11T03:17:20;14.85;;;11.70;;
4903;SDS011;2467;48.142;11.616;2023-02-11T03:17:55;15.20;;;11.10;;
4903;SDS011;2467;48.142;11.616;2023-02-11T03:18:32;15.18;;;11.32;;
4903;SDS011;2467;48.142;11.616;2023-02-11T03:19:09;13.63;;;12.20;;
4903;SDS011;2467;48.142;11.616;2023-02-11T03:19:45;15.93;;;12.10;;
4903;SDS011;2467;48.142;11.616;2023-02-11T03:20:21;16.33;;;11.57;;
4903;SDS011;2467;48.142;11.616;2023-02-11T03:20:53;17.38;;;12.45;;
4903;SDS011;2467;48.142;11.616;2023-02-11T03:21:29;16.48;;;12.05;;
4903;SDS011;2467;48.142;11.616;2023-02-11T03:22:04;16.35;;;12.82;;
4903;SDS011;2467;48.142;11.616;2023-02-11T03:22:39;15.88;;;13.70;;
4903;SDS011;2467;48.142;11.616;2023-02-11T03:23:18;15.23;;;12.05;;
4903;SDS011;2467;48.142;11.616;2023-02-11T03:23:54;15.68;;;11.75;;
4903;SDS011;2467;48.142;11.616;2023-02-11T03:24:28;13.10;;;11.30;;
4903;SDS011;2467;48.142;11.616;2023-02-11T03:25:04;15.90;;;12.05;;
4903;SDS011;2467;48.142;11.616;2023-02-11T03:25:38;13.13;;;11.20;;
4903;SDS011;2467;48.142;11.616;2023-02-11T03:26:15;14.93;;;11.43;;
4903;SDS011;2467;48.142;11.616;2023-02-11T03:26:55;15.30;;;11.73;;
4903;SDS011;2467;48.142;11.616;2023-02-11T03:27:30;15.32;;;11.35;;
4903;SDS011;2467;48.142;11.616;2023-02-11T03:28:11;14.00;;;11.52;;
4903;SDS011;2467;48.142;11.616;2023-02-11T03:28:48;15.07;;;11.35;;
4903;SDS011;2467;48.142;11.616;2023-02-11T03:29:27;14.50;;;11.80;;
4903;SDS011;2467;48.142;11.616;2023-02-11T03:30:04;12.05;;;10.48;;
4903;SDS011;2467;48.142;11.616;2023-02-11T03:30:43;12.80;;;10.45;;
4903;SDS011;2467;48.142;11.616;2023-02-11T03:31:20;13.85;;;11.32;;
4903;SDS011;2467;48.142;11.616;2023-02-11T03:32:00;12.57;;;10.65;;
4903;SDS011;2467;48.142;11.616;2023-02-11T03:32:39;15.93;;;11.73;;
4903;SDS011;2467;48.142;11.616;2023-02-11T03:33:19;14.13;;;11.60;;
4903;SDS011;2467;48.142;11.616;2023-02-11T03:33:58;12.00;;;10.70;;
4903;SDS011;2467;48.142;11.616;2023-02-11T03:34:35;13.55;;;10.85;;
4903;SDS011;2467;48.142;11.616;2023-02-11T03:35:13;13.27;;;10.90;;
4903;SDS011;2467;48.142;11.616;2023-02-11T03:35:49;14.00;;;10.23;;
4903;SDS011;2467;48.142;11.616;2023-02-11T03:36:28;14.27;;;12.00;;